sensor_id;sensor_type;location;lat;lon;timestamp;pressure;altitude;pressure_sealevel;temperature;humidity
9855;BME280;4966;48.112;9.282;2023-12-20T00:00:54;94820.16;;;4.73;73.22
9855;BME280;4966;48.112;9.282;2023-12-20T00:03:19;94832.06;;;4.72;72.83
9855;BME280;4966;48.112;9.282;2023-12-20T00:05:45;94817.44;;;4.59;73.62
9855;BME280;4966;48.112;9.282;2023-12-20T00:08:11;94792.44;;;4.86;73.01
9855;BME280;4966;48.112;9.282;2023-12-20T00:10:36;94790.31;;;4.83;73.17
9855;BME280;4966;48.112;9.282;2023-12-20T00:13:01;94785.44;;;4.85;73.02
9855;BME280;4966;48.112;9.282;2023-12-20T00:15:27;94803.22;;;4.86;73.13
9855;BME280;4966;48.112;9.282;2023-12-20T00:17:52;94789.25;;;4.84;73.50
9855;BME280;4966;48.112;9.282;2023-12-20T00:20:17;94771.78;;;4.82;73.86
9855;BME280;4966;48.112;9.282;2023-12-20T00:22:42;94771.56;;;4.92;73.35
9855;BME280;4966;48.112;9.282;2023-12-20T00:25:08;94768.28;;;4.67;74.17
9855;BME280;4966;48.112;9.282;2023-12-20T00:27:33;94767.44;;;4.39;75.79
9855;BME280;4966;48.112;9.282;2023-12-20T00:29:58;94757.00;;;4.65;75.98
9855;BME280;4966;48.112;9.282;2023-12-20T00:32:24;94747.91;;;4.61;76.11
9855;BME280;4966;48.112;9.282;2023-12-20T00:34:49;94748.22;;;4.60;76.14
9855;BME280;4966;48.112;9.282;2023-12-20T00:37:14;94740.72;;;4.71;76.10
9855;BME280;4966;48.112;9.282;2023-12-20T00:39:39;94748.41;;;4.77;75.58
9855;BME280;4966;48.112;9.282;2023-12-20T00:42:05;94721.34;;;4.82;75.63
9855;BME280;4966;48.112;9.282;2023-12-20T00:44:30;94729.34;;;4.74;76.37
9855;BME280;4966;48.112;9.282;2023-12-20T00:46:55;94732.13;;;4.55;77.82
9855;BME280;4966;48.112;9.282;2023-12-20T00:49:21;94730.94;;;4.75;76.78
9855;BME280;4966;48.112;9.282;2023-12-20T00:51:46;94734.31;;;4.66;77.69
9855;BME280;4966;48.112;9.282;2023-12-20T00:54:13;94720.56;;;4.96;76.62
9855;BME280;4966;48.112;9.282;2023-12-20T00:56:38;94716.75;;;4.97;76.41
9855;BME280;4966;48.112;9.282;2023-12-20T00:59:03;94711.25;;;5.02;76.25
9855;BME280;4966;48.112;9.282;2023-12-20T01:01:29;94713.94;;;5.02;76.38
9855;BME280;4966;48.112;9.282;2023-12-20T01:03:54;94727.94;;;5.04;76.27
9855;BME280;4966;48.112;9.282;2023-12-20T01:06:20;94727.03;;;4.95;76.91
9855;BME280;4966;48.112;9.282;2023-12-20T01:08:46;94727.31;;;5.07;76.15
9855;BME280;4966;48.112;9.282;2023-12-20T01:11:11;94725.81;;;5.15;76.11
9855;BME280;4966;48.112;9.282;2023-12-20T01:13:36;94726.53;;;4.93;77.04
9855;BME280;4966;48.112;9.282;2023-12-20T01:16:02;94729.72;;;4.95;77.33
9855;BME280;4966;48.112;9.282;2023-12-20T01:18:27;94734.22;;;4.99;77.64
9855;BME280;4966;48.112;9.282;2023-12-20T01:20:53;94732.41;;;5.08;77.33
9855;BME280;4966;48.112;9.282;2023-12-20T01:23:18;94730.91;;;5.02;78.04
9855;BME280;4966;48.112;9.282;2023-12-20T01:25:44;94722.81;;;5.16;77.46
9855;BME280;4966;48.112;9.282;2023-12-20T01:28:09;94737.91;;;5.17;77.36
9855;BME280;4966;48.112;9.282;2023-12-20T01:30:35;94726.91;;;5.27;76.84
9855;BME280;4966;48.112;9.282;2023-12-20T01:33:00;94720.22;;;5.11;78.17
9855;BME280;4966;48.112;9.282;2023-12-20T01:35:26;94717.91;;;5.32;76.98
9855;BME280;4966;48.112;9.282;2023-12-20T01:37:51;94709.69;;;5.37;76.67
9855;BME280;4966;48.112;9.282;2023-12-20T01:40:16;94712.69;;;5.36;77.01
9855;BME280;4966;48.112;9.282;2023-12-20T01:42:42;94723.72;;;5.11;78.38
9855;BME280;4966;48.112;9.282;2023-12-20T01:45:08;94722.81;;;5.30;77.75
9855;BME280;4966;48.112;9.282;2023-12-20T01:47:33;94713.69;;;5.40;77.92
9855;BME280;4966;48.112;9.282;2023-12-20T01:49:59;94716.88;;;4.92;79.60
9855;BME280;4966;48.112;9.282;2023-12-20T01:52:25;94721.31;;;5.24;79.31
9855;BME280;4966;48.112;9.282;2023-12-20T01:54:51;94726.50;;;5.34;78.26
9855;BME280;4966;48.112;9.282;2023-12-20T01:57:16;94733.09;;;5.14;79.72
9855;BME280;4966;48.112;9.282;2023-12-20T01:59:42;94723.81;;;5.20;79.71
9855;BME280;4966;48.112;9.282;2023-12-20T02:02:07;94723.34;;;4.90;80.87
9855;BME280;4966;48.112;9.282;2023-12-20T02:04:33;94730.84;;;4.94;81.56
9855;BME280;4966;48.112;9.282;2023-12-20T02:06:59;94726.03;;;4.90;81.78
9855;BME280;4966;48.112;9.282;2023-12-20T02:09:24;94727.34;;;4.52;84.07
9855;BME280;4966;48.112;9.282;2023-12-20T02:11:49;94716.34;;;4.62;84.42
9855;BME280;4966;48.112;9.282;2023-12-20T02:14:15;94717.81;;;5.09;82.28
9855;BME280;4966;48.112;9.282;2023-12-20T02:16:40;94722.22;;;5.19;81.56
9855;BME280;4966;48.112;9.282;2023-12-20T02:19:12;94710.78;;;5.36;80.91
9855;BME280;4966;48.112;9.282;2023-12-20T02:21:38;94724.31;;;5.22;81.96
9855;BME280;4966;48.112;9.282;2023-12-20T02:24:03;94710.50;;;5.24;82.52
9855;BME280;4966;48.112;9.282;2023-12-20T02:26:29;94710.88;;;5.45;81.05
9855;BME280;4966;48.112;9.282;2023-12-20T02:28:54;94703.50;;;5.37;81.36
9855;BME280;4966;48.112;9.282;2023-12-20T02:31:21;94704.94;;;5.57;80.67
9855;BME280;4966;48.112;9.282;2023-12-20T02:33:47;94705.31;;;5.64;80.44
9855;BME280;4966;48.112;9.282;2023-12-20T02:36:12;94696.19;;;5.73;80.00
9855;BME280;4966;48.112;9.282;2023-12-20T02:38:38;94689.63;;;5.66;80.04
9855;BME280;4966;48.112;9.282;2023-12-20T02:41:03;94695.06;;;5.52;80.48
9855;BME280;4966;48.112;9.282;2023-12-20T02:43:28;94702.59;;;5.41;81.18
9855;BME280;4966;48.112;9.282;2023-12-20T02:45:54;94701.66;;;5.46;81.30
9855;BME280;4966;48.112;9.282;2023-12-20T02:48:19;94691.63;;;5.60;80.76
9855;BME280;4966;48.112;9.282;2023-12-20T02:50:46;94704.59;;;5.36;81.64
9855;BME280;4966;48.112;9.282;2023-12-20T02:53:11;94701.44;;;5.56;81.39
9855;BME280;4966;48.112;9.282;2023-12-20T02:55:37;94696.44;;;5.63;81.22
9855;BME280;4966;48.112;9.282;2023-12-20T02:58:02;94689.94;;;5.50;81.20
9855;BME280;4966;48.112;9.282;2023-12-20T03:00:27;94690.84;;;5.82;80.72
9855;BME280;4966;48.112;9.282;2023-12-20T03:02:53;94682.50;;;5.70;81.25
9855;BME280;4966;48.112;9.282;2023-12-20T03:05:18;94682.06;;;5.54;81.99
9855;BME280;4966;48.112;9.282;2023-12-20T03:07:43;94690.44;;;5.52;82.35
9855;BME280;4966;48.112;9.282;2023-12-20T03:10:09;94697.22;;;5.64;81.69
9855;BME280;4966;48.112;9.282;2023-12-20T03:12:34;94692.00;;;5.67;81.91
9855;BME280;4966;48.112;9.282;2023-12-20T03:15:00;94686.50;;;5.72;81.47
9855;BME280;4966;48.112;9.282;2023-12-20T03:17:25;94685.84;;;5.53;83.16
9855;BME280;4966;48.112;9.282;2023-12-20T03:19:50;94685.56;;;5.54;83.31
9855;BME280;4966;48.112;9.282;2023-12-20T03:22:15;94696.16;;;5.51;84.25
9855;BME280;4966;48.112;9.282;2023-12-20T03:24:41;94691.47;;;5.43;84.66
9855;BME280;4966;48.112;9.282;2023-12-20T03:27:06;94690.06;;;5.45;85.00
9855;BME280;4966;48.112;9.282;2023-12-20T03:29:31;94697.78;;;5.38;85.83
9855;BME280;4966;48.112;9.282;2023-12-20T03:31:56;94688.81;;;5.29;86.54
9855;BME280;4966;48.112;9.282;2023-12-20T03:34:22;94693.13;;;5.30;87.16
9855;BME280;4966;48.112;9.282;2023-12-20T03:36:47;94689.25;;;5.22;87.76
9855;BME280;4966;48.112;9.282;2023-12-20T03:39:13;94695.75;;;5.21;88.04
9855;BME280;4966;48.112;9.282;2023-12-20T03:41:38;94700.97;;;5.18;88.98
9855;BME280;4966;48.112;9.282;2023-12-20T03:44:03;94696.75;;;5.11;89.28
9855;BME280;4966;48.112;9.282;2023-12-20T03:46:29;94693.31;;;5.33;88.71
9855;BME280;4966;48.112;9.282;2023-12-20T03:48:54;94698.78;;;5.06;90.17
9855;BME280;4966;48.112;9.282;2023-12-20T03:51:19;94702.75;;;5.22;89.78
9855;BME280;4966;48.112;9.282;2023-12-20T03:53:45;94697.28;;;5.36;89.49
9855;BME280;4966;48.112;9.282;2023-12-20T03:56:10;94709.59;;;5.28;89.72
9855;BME280;4966;48.112;9.282;2023-12-20T03:58:35;94697.72;;;5.29;89.50
9855;BME280;4966;48.112;9.282;2023-12-20T04:01:00;94706.91;;;5.28;90.38
9855;BME280;4966;48.112;9.282;2023-12-20T04:03:26;94708.09;;;5.36;90.00
9855;BME280;4966;48.112;9.282;2023-12-20T04:05:51;94711.00;;;5.26;90.69
9855;BME280;4966;48.112;9.282;2023-12-20T04:08:17;94708.03;;;5.27;90.91
9855;BME280;4966;48.112;9.282;2023-12-20T04:10:42;94710.00;;;5.36;90.92
9855;BME280;4966;48.112;9.282;2023-12-20T04:13:07;94724.22;;;5.27;91.38
9855;BME280;4966;48.112;9.282;2023-12-20T04:15:32;94722.44;;;5.45;91.33
9855;BME280;4966;48.112;9.282;2023-12-20T04:17:58;94725.13;;;5.23;92.22
9855;BME280;4966;48.112;9.282;2023-12-20T04:20:23;94734.88;;;5.32;91.93
9855;BME280;4966;48.112;9.282;2023-12-20T04:22:48;94728.56;;;5.37;91.95
9855;BME280;4966;48.112;9.282;2023-12-20T04:25:14;94733.59;;;5.16;93.14
9855;BME280;4966;48.112;9.282;2023-12-20T04:27:39;94732.06;;;5.38;92.11
9855;BME280;4966;48.112;9.282;2023-12-20T04:30:05;94739.28;;;5.15;92.58
9855;BME280;4966;48.112;9.282;2023-12-20T04:32:30;94724.13;;;5.19;93.61
9855;BME280;4966;48.112;9.282;2023-12-20T04:34:56;94735.31;;;5.12;93.35
9855;BME280;4966;48.112;9.282;2023-12-20T04:37:22;94745.00;;;5.27;93.30
9855;BME280;4966;48.112;9.282;2023-12-20T04:39:47;94749.28;;;5.14;93.11
9855;BME280;4966;48.112;9.282;2023-12-20T04:42:12;94746.47;;;5.19;93.03
9855;BME280;4966;48.112;9.282;2023-12-20T04:44:37;94745.69;;;5.05;92.78
9855;BME280;4966;48.112;9.282;2023-12-20T04:47:03;94744.13;;;5.04;93.22
9855;BME280;4966;48.112;9.282;2023-12-20T04:49:28;94756.63;;;5.36;91.50
9855;BME280;4966;48.112;9.282;2023-12-20T04:51:54;94766.69;;;5.08;92.25
9855;BME280;4966;48.112;9.282;2023-12-20T04:54:19;94767.66;;;5.26;91.61
9855;BME280;4966;48.112;9.282;2023-12-20T04:56:44;94766.47;;;5.18;92.25
9855;BME280;4966;48.112;9.282;2023-12-20T04:59:10;94767.75;;;4.93;93.44
9855;BME280;4966;48.112;9.282;2023-12-20T05:01:35;94769.78;;;5.15;92.85
9855;BME280;4966;48.112;9.282;2023-12-20T05:04:00;94764.88;;;5.17;91.78
9855;BME280;4966;48.112;9.282;2023-12-20T05:06:26;94765.00;;;4.98;93.10
9855;BME280;4966;48.112;9.282;2023-12-20T05:08:51;94764.56;;;5.05;93.07
9855;BME280;4966;48.112;9.282;2023-12-20T05:11:16;94759.56;;;5.12;92.07
9855;BME280;4966;48.112;9.282;2023-12-20T05:13:42;94756.28;;;5.01;92.57
9855;BME280;4966;48.112;9.282;2023-12-20T05:16:07;94765.00;;;4.84;93.36
9855;BME280;4966;48.112;9.282;2023-12-20T05:18:34;94773.94;;;5.07;92.34
9855;BME280;4966;48.112;9.282;2023-12-20T05:20:59;94775.66;;;5.03;93.16
9855;BME280;4966;48.112;9.282;2023-12-20T05:23:24;94779.66;;;5.06;92.78
9855;BME280;4966;48.112;9.282;2023-12-20T05:25:49;94782.66;;;4.90;93.52
9855;BME280;4966;48.112;9.282;2023-12-20T05:28:15;94797.72;;;4.78;93.78
9855;BME280;4966;48.112;9.282;2023-12-20T05:30:40;94805.59;;;4.88;93.97
9855;BME280;4966;48.112;9.282;2023-12-20T05:33:06;94801.22;;;4.92;93.96
9855;BME280;4966;48.112;9.282;2023-12-20T05:35:31;94796.72;;;4.87;93.95
9855;BME280;4966;48.112;9.282;2023-12-20T05:37:56;94797.81;;;5.28;92.11
9855;BME280;4966;48.112;9.282;2023-12-20T05:40:21;94792.31;;;5.33;91.41
9855;BME280;4966;48.112;9.282;2023-12-20T05:42:47;94816.00;;;5.08;92.53
9855;BME280;4966;48.112;9.282;2023-12-20T05:45:14;94816.91;;;5.04;93.08
9855;BME280;4966;48.112;9.282;2023-12-20T05:47:40;94815.69;;;5.24;92.17
9855;BME280;4966;48.112;9.282;2023-12-20T05:50:05;94802.63;;;5.17;92.78
9855;BME280;4966;48.112;9.282;2023-12-20T05:52:31;94798.81;;;5.18;92.25
9855;BME280;4966;48.112;9.282;2023-12-20T05:54:56;94805.34;;;5.17;92.21
9855;BME280;4966;48.112;9.282;2023-12-20T05:57:26;94810.13;;;5.20;91.79
9855;BME280;4966;48.112;9.282;2023-12-20T05:59:52;94818.59;;;5.27;91.87
9855;BME280;4966;48.112;9.282;2023-12-20T06:02:17;94823.59;;;5.06;93.20
9855;BME280;4966;48.112;9.282;2023-12-20T06:04:42;94829.19;;;5.24;91.66
9855;BME280;4966;48.112;9.282;2023-12-20T06:07:11;94823.69;;;5.29;91.55
9855;BME280;4966;48.112;9.282;2023-12-20T06:09:37;94830.91;;;5.20;92.34
9855;BME280;4966;48.112;9.282;2023-12-20T06:12:02;94830.00;;;5.24;92.26
9855;BME280;4966;48.112;9.282;2023-12-20T06:14:28;94833.28;;;5.21;91.66
9855;BME280;4966;48.112;9.282;2023-12-20T06:16:53;94840.97;;;5.28;91.68
9855;BME280;4966;48.112;9.282;2023-12-20T06:19:18;94830.47;;;4.85;94.00
9855;BME280;4966;48.112;9.282;2023-12-20T06:21:44;94826.59;;;5.05;93.05
9855;BME280;4966;48.112;9.282;2023-12-20T06:24:09;94828.69;;;5.08;92.82
9855;BME280;4966;48.112;9.282;2023-12-20T06:26:35;94842.97;;;5.08;93.19
9855;BME280;4966;48.112;9.282;2023-12-20T06:29:00;94843.97;;;5.13;92.76
9855;BME280;4966;48.112;9.282;2023-12-20T06:31:25;94852.34;;;5.39;91.32
9855;BME280;4966;48.112;9.282;2023-12-20T06:33:51;94864.75;;;5.40;90.88
9855;BME280;4966;48.112;9.282;2023-12-20T06:36:22;94850.06;;;5.04;93.04
9855;BME280;4966;48.112;9.282;2023-12-20T06:38:47;94852.84;;;4.99;93.39
9855;BME280;4966;48.112;9.282;2023-12-20T06:41:13;94860.94;;;5.41;91.56
9855;BME280;4966;48.112;9.282;2023-12-20T06:43:39;94860.66;;;5.28;92.42
9855;BME280;4966;48.112;9.282;2023-12-20T06:46:04;94862.75;;;5.31;91.69
9855;BME280;4966;48.112;9.282;2023-12-20T06:48:29;94862.34;;;5.38;91.33
9855;BME280;4966;48.112;9.282;2023-12-20T06:50:55;94863.25;;;5.33;91.38
9855;BME280;4966;48.112;9.282;2023-12-20T06:53:20;94864.03;;;5.48;90.44
9855;BME280;4966;48.112;9.282;2023-12-20T06:55:45;94874.53;;;5.36;90.67
9855;BME280;4966;48.112;9.282;2023-12-20T06:58:11;94869.94;;;5.36;90.74
9855;BME280;4966;48.112;9.282;2023-12-20T07:00:36;94877.22;;;5.22;92.24
9855;BME280;4966;48.112;9.282;2023-12-20T07:03:01;94870.25;;;5.21;92.72
9855;BME280;4966;48.112;9.282;2023-12-20T07:05:27;94871.44;;;5.28;91.50
9855;BME280;4966;48.112;9.282;2023-12-20T07:07:52;94866.94;;;5.24;92.14
9855;BME280;4966;48.112;9.282;2023-12-20T07:10:18;94871.44;;;5.28;91.85
9855;BME280;4966;48.112;9.282;2023-12-20T07:12:43;94871.66;;;5.18;92.68
9855;BME280;4966;48.112;9.282;2023-12-20T07:15:09;94867.91;;;5.00;93.07
9855;BME280;4966;48.112;9.282;2023-12-20T07:17:34;94875.59;;;4.93;94.59
9855;BME280;4966;48.112;9.282;2023-12-20T07:20:00;94885.13;;;5.18;92.73
9855;BME280;4966;48.112;9.282;2023-12-20T07:22:31;94888.75;;;4.81;95.36
9855;BME280;4966;48.112;9.282;2023-12-20T07:24:57;94898.19;;;4.64;96.55
9855;BME280;4966;48.112;9.282;2023-12-20T07:27:23;94896.69;;;5.05;94.05
9855;BME280;4966;48.112;9.282;2023-12-20T07:29:48;94899.09;;;5.06;93.37
9855;BME280;4966;48.112;9.282;2023-12-20T07:32:13;94903.31;;;5.13;93.56
9855;BME280;4966;48.112;9.282;2023-12-20T07:34:38;94906.91;;;5.36;91.83
9855;BME280;4966;48.112;9.282;2023-12-20T07:37:04;94915.19;;;5.25;92.69
9855;BME280;4966;48.112;9.282;2023-12-20T07:39:29;94910.50;;;5.17;93.06
9855;BME280;4966;48.112;9.282;2023-12-20T07:41:54;94913.91;;;5.23;93.04
9855;BME280;4966;48.112;9.282;2023-12-20T07:44:19;94915.91;;;5.17;92.58
9855;BME280;4966;48.112;9.282;2023-12-20T07:46:45;94913.63;;;5.24;92.73
9855;BME280;4966;48.112;9.282;2023-12-20T07:49:10;94913.91;;;5.23;93.01
9855;BME280;4966;48.112;9.282;2023-12-20T07:51:36;94915.59;;;5.19;92.73
9855;BME280;4966;48.112;9.282;2023-12-20T07:54:01;94913.84;;;4.95;94.38
9855;BME280;4966;48.112;9.282;2023-12-20T07:56:28;94920.88;;;5.24;93.02
9855;BME280;4966;48.112;9.282;2023-12-20T07:58:53;94923.88;;;5.08;93.70
9855;BME280;4966;48.112;9.282;2023-12-20T08:01:19;94928.91;;;5.43;92.24
9855;BME280;4966;48.112;9.282;2023-12-20T08:03:45;94933.59;;;5.51;91.93
9855;BME280;4966;48.112;9.282;2023-12-20T08:06:10;94938.06;;;5.28;92.19
9855;BME280;4966;48.112;9.282;2023-12-20T08:08:35;94933.50;;;5.42;91.76
9855;BME280;4966;48.112;9.282;2023-12-20T08:11:00;94937.41;;;5.64;91.43
9855;BME280;4966;48.112;9.282;2023-12-20T08:13:28;94934.19;;;5.62;91.40
9855;BME280;4966;48.112;9.282;2023-12-20T08:15:53;94937.50;;;5.45;91.07
9855;BME280;4966;48.112;9.282;2023-12-20T08:18:18;94929.69;;;5.85;90.13
9855;BME280;4966;48.112;9.282;2023-12-20T08:20:44;94939.00;;;5.92;90.17
9855;BME280;4966;48.112;9.282;2023-12-20T08:23:09;94928.16;;;6.20;89.11
9855;BME280;4966;48.112;9.282;2023-12-20T08:25:34;94933.03;;;6.32;87.96
9855;BME280;4966;48.112;9.282;2023-12-20T08:28:01;94930.81;;;6.34;88.85
9855;BME280;4966;48.112;9.282;2023-12-20T08:30:27;94936.22;;;6.34;89.31
9855;BME280;4966;48.112;9.282;2023-12-20T08:32:52;94934.75;;;6.64;88.37
9855;BME280;4966;48.112;9.282;2023-12-20T08:35:17;94925.13;;;6.58;88.04
9855;BME280;4966;48.112;9.282;2023-12-20T08:37:44;94921.31;;;6.36;88.60
9855;BME280;4966;48.112;9.282;2023-12-20T08:40:09;94917.19;;;6.39;89.36
9855;BME280;4966;48.112;9.282;2023-12-20T08:42:35;94920.97;;;6.52;88.73
9855;BME280;4966;48.112;9.282;2023-12-20T08:45:00;94923.88;;;6.42;89.24
9855;BME280;4966;48.112;9.282;2023-12-20T08:47:25;94918.94;;;6.57;88.75
9855;BME280;4966;48.112;9.282;2023-12-20T08:49:52;94928.97;;;6.57;88.56
9855;BME280;4966;48.112;9.282;2023-12-20T08:52:21;94926.50;;;6.47;88.61
9855;BME280;4966;48.112;9.282;2023-12-20T08:54:47;94932.28;;;6.76;87.07
9855;BME280;4966;48.112;9.282;2023-12-20T08:57:12;94934.97;;;6.54;88.11
9855;BME280;4966;48.112;9.282;2023-12-20T08:59:37;94922.88;;;6.74;87.66
9855;BME280;4966;48.112;9.282;2023-12-20T09:02:03;94925.19;;;6.89;87.36
9855;BME280;4966;48.112;9.282;2023-12-20T09:04:28;94921.97;;;6.78;87.79
9855;BME280;4966;48.112;9.282;2023-12-20T09:06:54;94926.75;;;6.59;88.83
9855;BME280;4966;48.112;9.282;2023-12-20T09:09:19;94936.88;;;6.53;89.12
9855;BME280;4966;48.112;9.282;2023-12-20T09:11:45;94928.03;;;6.84;89.35
9855;BME280;4966;48.112;9.282;2023-12-20T09:14:13;94923.25;;;6.81;88.67
9855;BME280;4966;48.112;9.282;2023-12-20T09:16:38;94919.75;;;6.80;88.12
9855;BME280;4966;48.112;9.282;2023-12-20T09:19:03;94922.09;;;6.73;88.93
9855;BME280;4966;48.112;9.282;2023-12-20T09:21:29;94927.53;;;7.05;87.86
9855;BME280;4966;48.112;9.282;2023-12-20T09:23:54;94929.00;;;7.11;87.49
9855;BME280;4966;48.112;9.282;2023-12-20T09:26:19;94925.28;;;6.75;89.03
9855;BME280;4966;48.112;9.282;2023-12-20T09:28:46;94925.75;;;6.55;89.16
9855;BME280;4966;48.112;9.282;2023-12-20T09:31:11;94936.31;;;6.65;89.56
9855;BME280;4966;48.112;9.282;2023-12-20T09:33:36;94933.22;;;6.94;88.61
9855;BME280;4966;48.112;9.282;2023-12-20T09:36:02;94926.75;;;6.81;89.10
9855;BME280;4966;48.112;9.282;2023-12-20T09:38:27;94928.56;;;7.17;87.91
9855;BME280;4966;48.112;9.282;2023-12-20T09:40:52;94928.13;;;7.24;87.87
9855;BME280;4966;48.112;9.282;2023-12-20T09:43:20;94933.19;;;7.48;87.16
9855;BME280;4966;48.112;9.282;2023-12-20T09:45:47;94938.59;;;7.17;87.88
9855;BME280;4966;48.112;9.282;2023-12-20T09:48:13;94944.81;;;6.95;86.73
9855;BME280;4966;48.112;9.282;2023-12-20T09:50:41;94930.84;;;7.01;87.40
9855;BME280;4966;48.112;9.282;2023-12-20T09:53:14;94932.22;;;6.68;88.05
9855;BME280;4966;48.112;9.282;2023-12-20T09:55:41;94918.44;;;6.33;87.75
9855;BME280;4966;48.112;9.282;2023-12-20T09:58:06;94921.56;;;6.12;89.02
9855;BME280;4966;48.112;9.282;2023-12-20T10:00:34;94921.78;;;6.16;91.08
9855;BME280;4966;48.112;9.282;2023-12-20T10:03:00;94914.47;;;6.16;90.62
9855;BME280;4966;48.112;9.282;2023-12-20T10:05:27;94903.34;;;6.54;89.00
9855;BME280;4966;48.112;9.282;2023-12-20T10:07:53;94907.38;;;6.43;89.82
9855;BME280;4966;48.112;9.282;2023-12-20T10:10:18;94908.25;;;6.52;87.50
9855;BME280;4966;48.112;9.282;2023-12-20T10:15:28;94910.97;;;6.52;88.81
9855;BME280;4966;48.112;9.282;2023-12-20T10:17:53;94903.84;;;6.20;89.77
9855;BME280;4966;48.112;9.282;2023-12-20T10:20:19;94901.25;;;6.74;87.84
9855;BME280;4966;48.112;9.282;2023-12-20T10:22:45;94904.63;;;6.57;88.12
9855;BME280;4966;48.112;9.282;2023-12-20T10:25:11;94902.09;;;6.60;86.61
9855;BME280;4966;48.112;9.282;2023-12-20T10:27:36;94903.72;;;6.62;85.35
9855;BME280;4966;48.112;9.282;2023-12-20T10:30:02;94901.38;;;6.69;85.71
9855;BME280;4966;48.112;9.282;2023-12-20T10:32:27;94905.38;;;6.12;87.26
9855;BME280;4966;48.112;9.282;2023-12-20T10:34:54;94903.00;;;5.69;89.16
9855;BME280;4966;48.112;9.282;2023-12-20T10:37:20;94909.72;;;6.00;88.79
9855;BME280;4966;48.112;9.282;2023-12-20T10:39:54;94896.19;;;6.13;86.93
9855;BME280;4966;48.112;9.282;2023-12-20T10:42:24;94910.09;;;6.07;86.73
9855;BME280;4966;48.112;9.282;2023-12-20T10:44:51;94906.88;;;6.18;86.74
9855;BME280;4966;48.112;9.282;2023-12-20T10:47:19;94898.91;;;5.72;88.37
9855;BME280;4966;48.112;9.282;2023-12-20T10:49:45;94903.50;;;5.99;88.09
9855;BME280;4966;48.112;9.282;2023-12-20T10:52:12;94888.38;;;6.12;86.33
9855;BME280;4966;48.112;9.282;2023-12-20T10:54:39;94891.47;;;6.05;86.39
9855;BME280;4966;48.112;9.282;2023-12-20T10:57:05;94892.28;;;5.92;87.95
9855;BME280;4966;48.112;9.282;2023-12-20T10:59:33;94892.47;;;6.09;88.53
9855;BME280;4966;48.112;9.282;2023-12-20T11:01:59;94895.47;;;6.67;85.90
9855;BME280;4966;48.112;9.282;2023-12-20T11:05:01;94886.06;;;6.05;84.63
9855;BME280;4966;48.112;9.282;2023-12-20T11:07:35;94886.28;;;6.09;84.39
9855;BME280;4966;48.112;9.282;2023-12-20T11:10:24;94893.09;;;5.65;83.09
9855;BME280;4966;48.112;9.282;2023-12-20T11:12:59;94889.09;;;5.90;82.75
9855;BME280;4966;48.112;9.282;2023-12-20T11:15:28;94877.78;;;6.38;82.95
9855;BME280;4966;48.112;9.282;2023-12-20T11:17:57;94889.28;;;6.66;81.64
9855;BME280;4966;48.112;9.282;2023-12-20T11:20:24;94890.28;;;7.01;80.76
9855;BME280;4966;48.112;9.282;2023-12-20T11:23:00;94890.44;;;7.76;78.83
9855;BME280;4966;48.112;9.282;2023-12-20T11:25:26;94887.75;;;7.85;78.10
9855;BME280;4966;48.112;9.282;2023-12-20T11:28:10;94898.06;;;6.94;77.66
9855;BME280;4966;48.112;9.282;2023-12-20T11:30:52;94895.22;;;6.77;79.38
9855;BME280;4966;48.112;9.282;2023-12-20T11:33:25;94887.28;;;7.03;77.44
9855;BME280;4966;48.112;9.282;2023-12-20T11:35:51;94893.06;;;6.88;78.87
9855;BME280;4966;48.112;9.282;2023-12-20T11:38:16;94882.88;;;6.39;79.63
9855;BME280;4966;48.112;9.282;2023-12-20T11:40:42;94882.19;;;6.34;79.75
9855;BME280;4966;48.112;9.282;2023-12-20T11:43:08;94886.56;;;6.07;80.63
9855;BME280;4966;48.112;9.282;2023-12-20T11:45:34;94883.34;;;6.19;80.12
9855;BME280;4966;48.112;9.282;2023-12-20T11:48:01;94896.00;;;5.82;80.62
9855;BME280;4966;48.112;9.282;2023-12-20T11:50:28;94882.47;;;6.10;80.03
9855;BME280;4966;48.112;9.282;2023-12-20T11:52:55;94890.09;;;5.80;81.04
9855;BME280;4966;48.112;9.282;2023-12-20T11:55:21;94888.25;;;6.17;79.97
9855;BME280;4966;48.112;9.282;2023-12-20T11:57:46;94886.28;;;6.09;79.45
9855;BME280;4966;48.112;9.282;2023-12-20T12:00:13;94876.50;;;6.58;79.19
9855;BME280;4966;48.112;9.282;2023-12-20T12:02:39;94879.88;;;7.66;76.59
9855;BME280;4966;48.112;9.282;2023-12-20T12:05:05;94868.47;;;9.00;70.95
9855;BME280;4966;48.112;9.282;2023-12-20T12:07:31;94878.38;;;8.00;71.00
9855;BME280;4966;48.112;9.282;2023-12-20T12:09:56;94873.00;;;7.51;70.99
9855;BME280;4966;48.112;9.282;2023-12-20T12:12:21;94881.28;;;7.15;71.27
9855;BME280;4966;48.112;9.282;2023-12-20T12:14:48;94869.00;;;6.32;73.64
9855;BME280;4966;48.112;9.282;2023-12-20T12:17:14;94872.50;;;6.33;74.99
9855;BME280;4966;48.112;9.282;2023-12-20T12:19:41;94872.91;;;6.04;74.47
9855;BME280;4966;48.112;9.282;2023-12-20T12:24:46;94875.88;;;5.88;73.68
9855;BME280;4966;48.112;9.282;2023-12-20T12:27:13;94877.28;;;6.13;73.39
9855;BME280;4966;48.112;9.282;2023-12-20T12:29:38;94869.09;;;6.27;72.20
9855;BME280;4966;48.112;9.282;2023-12-20T12:32:05;94873.47;;;6.01;72.53
9855;BME280;4966;48.112;9.282;2023-12-20T12:34:32;94875.81;;;6.30;72.01
9855;BME280;4966;48.112;9.282;2023-12-20T12:36:58;94866.84;;;6.21;71.62
9855;BME280;4966;48.112;9.282;2023-12-20T12:39:24;94870.69;;;5.92;71.39
9855;BME280;4966;48.112;9.282;2023-12-20T12:41:50;94864.09;;;5.98;70.29
9855;BME280;4966;48.112;9.282;2023-12-20T12:44:16;94861.63;;;6.24;70.82
9855;BME280;4966;48.112;9.282;2023-12-20T12:46:43;94859.69;;;5.74;69.86
9855;BME280;4966;48.112;9.282;2023-12-20T12:49:08;94867.56;;;6.12;68.57
9855;BME280;4966;48.112;9.282;2023-12-20T12:51:33;94873.13;;;5.66;68.41
9855;BME280;4966;48.112;9.282;2023-12-20T12:53:59;94865.69;;;6.35;67.49
9855;BME280;4966;48.112;9.282;2023-12-20T12:56:24;94861.81;;;6.28;66.32
9855;BME280;4966;48.112;9.282;2023-12-20T12:58:49;94866.50;;;6.58;66.00
9855;BME280;4966;48.112;9.282;2023-12-20T13:01:15;94865.34;;;7.05;66.70
9855;BME280;4966;48.112;9.282;2023-12-20T13:03:40;94873.66;;;6.41;64.50
9855;BME280;4966;48.112;9.282;2023-12-20T13:06:06;94865.06;;;6.38;64.80
9855;BME280;4966;48.112;9.282;2023-12-20T13:08:34;94863.94;;;6.85;62.96
9855;BME280;4966;48.112;9.282;2023-12-20T13:10:59;94858.28;;;6.95;62.76
9855;BME280;4966;48.112;9.282;2023-12-20T13:13:26;94865.25;;;6.65;63.42
9855;BME280;4966;48.112;9.282;2023-12-20T13:15:52;94869.84;;;7.58;62.99
9855;BME280;4966;48.112;9.282;2023-12-20T13:18:20;94869.16;;;8.09;61.95
9855;BME280;4966;48.112;9.282;2023-12-20T13:20:45;94869.00;;;8.15;60.61
9855;BME280;4966;48.112;9.282;2023-12-20T13:23:11;94877.19;;;7.66;61.78
9855;BME280;4966;48.112;9.282;2023-12-20T13:25:36;94883.28;;;7.32;61.65
9855;BME280;4966;48.112;9.282;2023-12-20T13:28:02;94881.44;;;7.10;62.55
9855;BME280;4966;48.112;9.282;2023-12-20T13:30:30;94891.09;;;6.79;62.82